Time;durP1;ratioP1;P1;durP2;ratioP2;P2;SDS_P1;SDS_P2;PMS_P1;PMS_P2;Temp;Humidity;BMP_temperature;BMP_pressure;BME280_temperature;BME280_humidity;BME280_pressure;Samples;Min_cycle;Max_cycle;Signal;HPM_P1;HPM_P2
2023/06/19 00:01:03;;;;;;;24.92;15.60;;;;;;;16.20;100.00;92847.00;2084405;28;20029;-82
2023/06/19 00:02:11;;;;;;;22.90;16.13;;;;;;;16.27;100.00;92841.25;2072340;28;20018;-82
2023/06/19 00:03:19;;;;;;;23.33;15.82;;;;;;;16.28;100.00;92839.31;2074866;28;20033;-82
2023/06/19 00:04:26;;;;;;;21.98;15.00;;;;;;;16.24;100.00;92846.81;2061831;28;20418;-84
2023/06/19 00:05:32;;;;;;;20.90;15.45;;;;;;;16.20;100.00;92840.84;2077387;28;20028;-82
2023/06/19 00:06:38;;;;;;;27.02;15.75;;;;;;;16.23;100.00;92842.63;2098790;28;20429;-82
2023/06/19 00:07:42;;;;;;;22.23;16.25;;;;;;;16.30;100.00;92842.31;2083633;28;20516;-83
2023/06/19 00:08:50;;;;;;;23.17;16.63;;;;;;;16.26;100.00;92841.72;2067850;28;20062;-83
2023/06/19 00:09:58;;;;;;;24.88;15.07;;;;;;;16.28;100.00;92839.31;2071547;28;20018;-84
2023/06/19 00:11:08;;;;;;;29.15;16.50;;;;;;;16.31;100.00;92847.25;2089511;28;20025;-81
2023/06/19 00:12:11;;;;;;;;;;;;;;;16.36;100.00;92838.50;2090275;28;20486;-81
2023/06/19 00:13:18;;;;;;;23.80;15.43;;;;;;;16.44;100.00;92838.91;2082336;28;19920;-83
2023/06/19 00:14:26;;;;;;;25.75;15.02;;;;;;;16.48;100.00;92844.16;2072663;28;20037;-80
2023/06/19 00:15:35;;;;;;;22.83;14.75;;;;;;;16.51;100.00;92843.97;2070639;28;20029;-81
2023/06/19 00:16:40;;;;;;;21.17;15.90;;;;;;;16.51;100.00;92845.94;2075940;28;20006;-83
2023/06/19 00:17:45;;;;;;;21.17;14.57;;;;;;;16.56;100.00;92848.75;2068216;28;20494;-81
2023/06/19 00:18:55;;;;;;;20.83;14.90;;;;;;;16.59;100.00;92847.06;2067046;28;20038;-82
2023/06/19 00:20:07;;;;;;;25.25;15.70;;;;;;;16.62;100.00;92838.03;2077689;28;20025;-81
2023/06/19 00:21:18;;;;;;;;;;;;;;;16.62;100.00;92846.88;2075718;28;20572;-83
2023/06/19 00:22:25;;;;;;;23.45;15.50;;;;;;;16.60;100.00;92840.47;2076016;28;19913;-82
2023/06/19 00:23:35;;;;;;;23.63;16.05;;;;;;;16.56;100.00;92839.91;2081967;28;20750;-82
2023/06/19 00:24:41;;;;;;;21.58;15.85;;;;;;;16.57;100.00;92850.22;2071982;28;20030;-81
2023/06/19 00:25:48;;;;;;;27.58;15.95;;;;;;;16.56;100.00;92845.28;2084612;28;20061;-80
2023/06/19 00:27:02;;;;;;;23.10;15.65;;;;;;;16.56;100.00;92848.00;2082677;28;20490;-83
2023/06/19 00:28:13;;;;;;;23.98;15.50;;;;;;;16.43;100.00;92848.22;2075884;28;20033;-82
2023/06/19 00:29:27;;;;;;;24.65;15.73;;;;;;;16.40;100.00;92853.78;2084993;28;20037;-82
2023/06/19 00:30:32;;;;;;;25.42;16.10;;;;;;;16.38;100.00;92850.81;2090328;28;20025;-83
2023/06/19 00:31:42;;;;;;;24.35;15.52;;;;;;;16.51;100.00;92860.16;2072834;28;20594;-81
2023/06/19 00:32:53;;;;;;;21.02;14.57;;;;;;;16.65;100.00;92871.47;2077330;28;20037;-82
2023/06/19 00:34:00;;;;;;;22.52;14.18;;;;;;;16.69;100.00;92878.19;2076453;28;20324;-80
2023/06/19 00:35:07;;;;;;;22.77;15.05;;;;;;;16.65;100.00;92896.50;2072203;28;20075;-84
2023/06/19 00:36:25;;;;;;;27.45;14.23;;;;;;;16.89;100.00;92896.50;2072768;28;20037;-83
2023/06/19 00:37:32;;;;;;;23.00;13.95;;;;;;;17.32;100.00;92899.78;2079040;28;20030;-81
2023/06/19 00:38:41;;;;;;;24.05;14.30;;;;;;;17.63;100.00;92904.75;2082289;28;20021;-82
2023/06/19 00:39:51;;;;;;;17.02;14.38;;;;;;;18.32;100.00;92895.28;2068214;28;20054;-82
2023/06/19 00:40:58;;;;;;;;;;;;;;;18.34;100.00;92886.69;2078738;28;20053;-81
2023/06/19 00:42:08;;;;;;;23.10;13.00;;;;;;;18.36;100.00;92903.22;2074145;28;19917;-81
2023/06/19 00:43:15;;;;;;;17.48;11.35;;;;;;;18.50;100.00;92913.25;2075018;28;20032;-83
2023/06/19 00:44:21;;;;;;;19.77;11.43;;;;;;;18.50;100.00;92902.41;2069940;28;20053;-82
2023/06/19 00:45:31;;;;;;;20.80;11.43;;;;;;;18.63;100.00;92899.38;2065996;28;20450;-82
2023/06/19 00:46:38;;;;;;;20.17;10.68;;;;;;;18.51;100.00;92898.47;2069203;28;20041;-83
2023/06/19 00:47:56;;;;;;;19.65;10.75;;;;;;;18.52;100.00;92902.69;2069836;28;20446;-83
2023/06/19 00:49:06;;;;;;;18.88;9.50;;;;;;;18.66;100.00;92912.00;2079343;28;20037;-83
2023/06/19 00:50:14;;;;;;;19.75;10.45;;;;;;;18.60;100.00;92906.47;2073675;28;20022;-85
2023/06/19 00:51:21;;;;;;;13.38;9.95;;;;;;;18.50;100.00;92904.38;2063183;28;20034;-81
2023/06/19 00:52:28;;;;;;;15.60;9.57;;;;;;;18.54;100.00;92913.78;2088424;28;19996;-81
2023/06/19 00:53:39;;;;;;;14.93;9.38;;;;;;;18.46;100.00;92907.28;2083871;28;20417;-82
2023/06/19 00:54:47;;;;;;;21.63;10.00;;;;;;;18.44;100.00;92915.13;2078966;28;20033;-83
2023/06/19 00:55:56;;;;;;;17.02;9.25;;;;;;;18.42;100.00;92936.50;2072011;28;20037;-81
2023/06/19 00:57:05;;;;;;;20.58;9.48;;;;;;;18.39;100.00;92932.00;2083590;28;20009;-83
2023/06/19 00:58:10;;;;;;;16.95;9.80;;;;;;;18.33;100.00;92934.66;2080822;28;20119;-81
2023/06/19 00:59:20;;;;;;;12.45;9.00;;;;;;;18.21;100.00;92935.69;2076205;28;20021;-82
2023/06/19 01:00:28;;;;;;;15.20;9.70;;;;;;;18.10;100.00;92930.13;2090178;28;20418;-84
2023/06/19 01:01:36;;;;;;;15.07;10.02;;;;;;;18.11;100.00;92939.72;2081112;28;20064;-83
2023/06/19 01:02:44;;;;;;;12.85;8.63;;;;;;;18.14;100.00;92938.78;2073396;28;20382;-85
2023/06/19 01:03:50;;;;;;;16.65;8.32;;;;;;;18.08;100.00;92937.94;2066879;28;20097;-83
2023/06/19 01:04:57;;;;;;;15.88;9.18;;;;;;;18.10;100.00;92940.94;2073463;28;20323;-82
2023/06/19 01:06:02;;;;;;;12.93;8.50;;;;;;;17.96;100.00;92944.41;2071536;28;20033;-82
2023/06/19 01:07:09;;;;;;;24.90;8.00;;;;;;;18.00;100.00;92942.22;2073215;28;20035;-84
2023/06/19 01:08:25;;;;;;;12.43;7.88;;;;;;;18.00;100.00;92948.41;2066064;28;20061;-83
2023/06/19 01:09:35;;;;;;;16.73;7.32;;;;;;;17.94;100.00;92946.81;2069890;28;20073;-83
2023/06/19 01:10:47;;;;;;;13.70;7.93;;;;;;;17.85;100.00;92953.81;2083504;28;20080;-83
2023/06/19 01:13:44;;;;;;;18.75;7.53;;;;;;;17.72;100.00;92952.56;2083917;28;20031;-85
2023/06/19 01:14:58;;;;;;;13.70;7.35;;;;;;;17.74;100.00;92944.78;2084960;28;20056;-86
2023/06/19 01:16:06;;;;;;;12.93;7.47;;;;;;;17.74;100.00;92956.34;2075194;28;20105;-87
2023/06/19 01:17:13;;;;;;;12.15;7.00;;;;;;;17.80;100.00;92940.19;2066003;28;20454;-83
2023/06/19 01:18:23;;;;;;;10.80;6.50;;;;;;;17.74;100.00;92928.56;2078776;28;20037;-81
2023/06/19 01:19:29;;;;;;;11.32;7.38;;;;;;;17.78;100.00;92937.97;2074641;28;20402;-85
2023/06/19 01:20:36;;;;;;;10.07;6.72;;;;;;;17.69;100.00;92932.63;2073786;28;20041;-84
2023/06/19 01:21:40;;;;;;;10.20;6.50;;;;;;;17.73;100.00;92927.00;2066642;28;20451;-82
2023/06/19 01:22:45;;;;;;;11.32;6.68;;;;;;;17.66;100.00;92922.75;2071314;28;20449;-82
2023/06/19 01:23:50;;;;;;;11.60;6.88;;;;;;;17.55;100.00;92912.47;2067043;28;20030;-83
2023/06/19 01:24:57;;;;;;;15.18;6.80;;;;;;;17.63;100.00;92921.69;2067866;28;20026;-83
2023/06/19 01:26:02;;;;;;;10.50;6.75;;;;;;;17.55;100.00;92911.72;2075301;28;20021;-81
2023/06/19 01:27:09;;;;;;;12.75;6.90;;;;;;;17.62;100.00;92914.06;2083352;28;20053;-85
2023/06/19 01:28:17;;;;;;;9.40;6.20;;;;;;;17.46;100.00;92911.81;2083325;28;20025;-82
2023/06/19 01:29:24;;;;;;;12.38;6.63;;;;;;;17.50;100.00;92915.06;2089672;28;20519;-83
2023/06/19 01:30:31;;;;;;;12.93;6.78;;;;;;;17.44;100.00;92906.88;2067736;28;20022;-83
2023/06/19 01:31:48;;;;;;;10.18;6.82;;;;;;;17.41;100.00;92917.88;2067438;28;20430;-82
2023/06/19 01:33:07;;;;;;;10.05;6.53;;;;;;;17.42;100.00;92914.69;2083755;28;20024;-84
2023/06/19 01:34:15;;;;;;;10.80;6.57;;;;;;;17.44;100.00;92925.78;2079222;28;20021;-83
2023/06/19 01:35:30;;;;;;;13.20;6.90;;;;;;;17.44;100.00;92911.53;2068036;28;20026;-84
2023/06/19 01:36:44;;;;;;;11.23;6.45;;;;;;;17.33;100.00;92906.66;2077388;28;20015;-82
2023/06/19 01:37:54;;;;;;;10.05;6.53;;;;;;;17.40;100.00;92914.41;2084068;28;20029;-83
2023/06/19 01:39:02;;;;;;;10.13;6.70;;;;;;;17.56;100.00;92913.97;2082501;28;20089;-84
2023/06/19 01:40:20;;;;;;;9.43;6.38;;;;;;;17.44;100.00;92909.59;2083158;28;20109;-82
2023/06/19 01:41:29;;;;;;;;;;;;;;;17.48;100.00;92909.41;2081052;28;20027;-84
2023/06/19 01:42:41;;;;;;;10.73;6.38;;;;;;;17.41;100.00;92917.88;2082445;28;19943;-81
2023/06/19 01:43:48;;;;;;;11.13;6.38;;;;;;;17.40;100.00;92916.38;2090064;28;20027;-83
2023/06/19 01:44:55;;;;;;;10.90;5.93;;;;;;;17.52;100.00;92913.41;2081794;28;20032;-83
2023/06/19 01:46:03;;;;;;;9.75;6.28;;;;;;;17.44;100.00;92925.78;2065845;28;20053;-84
2023/06/19 01:47:19;;;;;;;9.35;6.32;;;;;;;17.52;100.00;92924.22;2067077;28;20037;-84
2023/06/19 01:48:27;;;;;;;10.65;6.40;;;;;;;17.46;100.00;92928.78;2063659;28;20164;-83
2023/06/19 01:49:37;;;;;;;8.75;5.80;;;;;;;17.41;100.00;92929.41;2084135;28;20032;-81
2023/06/19 01:50:50;;;;;;;8.30;5.50;;;;;;;17.40;100.00;92927.94;2087523;28;20029;-82
2023/06/19 01:52:01;;;;;;;10.52;6.20;;;;;;;17.35;100.00;92933.97;2071293;28;20026;-81
2023/06/19 01:53:10;;;;;;;8.18;5.72;;;;;;;17.34;100.00;92935.19;2075197;28;20405;-84
2023/06/19 01:54:21;;;;;;;7.75;5.78;;;;;;;17.30;100.00;92948.88;2083109;28;20024;-83
2023/06/19 01:55:29;;;;;;;7.72;5.55;;;;;;;17.27;100.00;92949.06;2090342;28;20171;-82
2023/06/19 01:56:38;;;;;;;8.60;5.38;;;;;;;17.23;100.00;92954.63;2086704;28;20021;-84
2023/06/19 01:57:46;;;;;;;14.18;5.88;;;;;;;17.24;100.00;92966.91;2073639;28;20057;-83
2023/06/19 01:58:55;;;;;;;8.80;5.43;;;;;;;17.27;100.00;92957.16;2073318;28;20351;-82
2023/06/19 02:00:05;;;;;;;8.18;5.75;;;;;;;17.23;100.00;92957.31;2082078;28;20041;-84
2023/06/19 02:01:30;;;;;;;11.90;6.30;;;;;;;17.15;100.00;92955.44;2082485;28;20052;-81
2023/06/19 02:02:41;;;;;;;8.60;5.63;;;;;;;17.16;100.00;92957.66;2077601;28;20028;-82
2023/06/19 02:03:47;;;;;;;10.40;6.15;;;;;;;17.14;100.00;92964.75;2082235;28;20381;-81
2023/06/19 02:04:57;;;;;;;9.13;5.35;;;;;;;17.15;100.00;92969.69;2082970;28;20116;-82
2023/06/19 02:06:09;;;;;;;8.85;5.38;;;;;;;17.24;100.00;92966.19;2088542;28;20029;-83
2023/06/19 02:07:20;;;;;;;9.38;5.55;;;;;;;17.17;100.00;92980.06;2082639;28;20036;-82
2023/06/19 02:08:28;;;;;;;8.05;5.50;;;;;;;17.13;100.00;92966.72;2078365;28;20044;-82
2023/06/19 02:09:37;;;;;;;8.75;5.57;;;;;;;17.14;100.00;92976.31;2078123;28;20358;-84
2023/06/19 02:10:49;;;;;;;8.25;5.57;;;;;;;17.09;100.00;92974.25;2073346;28;20034;-84
2023/06/19 02:11:59;;;;;;;8.07;5.40;;;;;;;17.08;100.00;92965.41;2078133;28;20108;-84
2023/06/19 02:13:07;;;;;;;8.77;5.53;;;;;;;17.04;100.00;92981.03;2081178;28;20486;-81
2023/06/19 02:14:17;;;;;;;9.05;5.63;;;;;;;17.04;100.00;92980.28;2069013;28;20030;-84
2023/06/19 02:15:22;;;;;;;8.00;5.28;;;;;;;17.09;100.00;92985.78;2066886;28;20050;-84
2023/06/19 02:16:30;;;;;;;10.63;5.22;;;;;;;17.13;100.00;92982.19;2075945;28;20030;-83
2023/06/19 02:17:42;;;;;;;6.95;4.88;;;;;;;17.13;100.00;92984.88;2081035;28;20539;-82
2023/06/19 02:18:48;;;;;;;6.82;5.10;;;;;;;17.09;100.00;92985.78;2081826;28;20033;-82
2023/06/19 02:34:33;;;;;;;5.22;3.42;;;;;;;16.91;100.00;92974.38;2585493;22;19924;-75
2023/06/19 02:39:02;;;;;;;5.53;3.90;;;;;;;16.96;100.00;92971.78;2521807;23;20006;-75
2023/06/19 02:41:01;;;;;;;5.25;3.75;;;;;;;16.99;100.00;92973.56;2485874;23;20010;-75
2023/06/19 02:43:03;;;;;;;4.25;3.40;;;;;;;17.09;100.00;92976.94;2437817;24;20431;-75
2023/06/19 03:15:33;;;;;;;7.43;4.00;;;;;;;16.10;100.00;92956.09;2381132;24;20018;-74
2023/06/19 03:19:46;;;;;;;4.68;3.45;;;;;;;15.95;100.00;92952.56;2413956;24;20026;-74
2023/06/19 03:24:31;;;;;;;4.25;3.35;;;;;;;15.94;100.00;92943.00;2438788;24;20029;-76
2023/06/19 03:26:35;;;;;;;;;;;;;;;;;;;;;
2023/06/19 03:32:59;;;;;;;3.85;3.22;;;;;;;15.67;100.00;92951.88;2429762;24;20018;-75
2023/06/19 03:34:11;;;;;;;4.70;3.30;;;;;;;15.55;100.00;92959.66;2446649;23;20037;-75
2023/06/19 03:35:29;;;;;;;5.95;3.40;;;;;;;15.51;100.00;92964.44;2532933;23;20196;-74
2023/06/19 03:37:47;;;;;;;5.72;3.55;;;;;;;15.47;100.00;92960.41;2556359;23;20357;-74
2023/06/19 03:40:05;;;;;;;;;;;;;;;;;;;;;
2023/06/19 03:41:46;;;;;;;3.78;3.22;;;;;;;15.51;100.00;92969.09;2442876;24;20062;-74
2023/06/19 03:43:16;;;;;;;4.40;3.20;;;;;;;15.54;100.00;92962.78;2460880;24;20008;-74
2023/06/19 03:45:09;;;;;;;4.55;3.60;;;;;;;15.52;100.00;92959.81;2499732;23;20468;-75
2023/06/19 03:46:42;;;;;;;3.35;3.00;;;;;;;15.52;100.00;92965.19;2529999;23;20474;-75
2023/06/19 04:12:42;;;;;;;5.88;3.83;;;;;;;15.56;100.00;92963.09;2403941;24;20019;-74
2023/06/19 04:13:58;;;;;;;3.92;3.63;;;;;;;15.65;100.00;92963.09;2352227;25;20028;-74
2023/06/19 04:17:15;;;;;;;3.88;3.58;;;;;;;15.68;100.00;92962.22;2347956;25;20024;-75
2023/06/19 04:21:02;;;;;;;5.45;3.97;;;;;;;15.67;100.00;92955.34;2376681;24;20024;-76
2023/06/19 04:39:21;;;;;;;7.25;4.40;;;;;;;15.65;100.00;92946.94;2411596;24;20840;-75
2023/06/19 04:43:16;;;;;;;4.70;4.32;;;;;;;15.73;100.00;92952.78;2434638;24;20021;-75
2023/06/19 04:59:02;;;;;;;6.75;6.05;;;;;;;15.76;100.00;92955.31;2424224;24;20038;-77
2023/06/19 05:04:34;;;;;;;7.75;6.80;;;;;;;16.05;100.00;92954.78;2458457;23;20237;-82
2023/06/19 05:06:48;;;;;;;7.45;6.75;;;;;;;16.02;100.00;92960.31;2575016;23;20012;-92
2023/06/19 05:07:52;;;;;;;8.20;6.85;;;;;;;15.98;100.00;92963.19;2558844;23;20009;-82
2023/06/19 05:08:53;;;;;;;9.52;7.32;;;;;;;15.89;100.00;92960.50;2546028;23;20092;-81
2023/06/19 05:09:54;;;;;;;7.55;6.80;;;;;;;15.94;100.00;92969.94;2531219;23;20058;-84
2023/06/19 05:10:56;;;;;;;9.23;7.13;;;;;;;16.01;100.00;92964.97;2545104;23;20005;-82
2023/06/19 05:11:57;;;;;;;9.75;7.60;;;;;;;16.03;100.00;92964.53;2555462;23;20001;-82
2023/06/19 05:13:04;;;;;;;8.40;6.82;;;;;;;16.07;100.00;92965.88;2531099;23;20001;-86
2023/06/19 05:14:05;;;;;;;9.02;7.78;;;;;;;16.02;100.00;92971.09;2555576;23;20032;-84
2023/06/19 05:15:06;;;;;;;8.80;7.47;;;;;;;16.08;100.00;92966.63;2555462;23;20001;-84
2023/06/19 05:16:07;;;;;;;10.25;7.20;;;;;;;16.10;100.00;92962.25;2531689;23;20016;-81
2023/06/19 05:17:09;;;;;;;10.98;7.93;;;;;;;16.27;100.00;92959.19;2542637;23;20008;-81
2023/06/19 05:18:10;;;;;;;10.93;7.70;;;;;;;16.28;100.00;92961.44;2554708;23;20055;-83
2023/06/19 05:19:12;;;;;;;9.43;8.25;;;;;;;16.31;100.00;92957.81;2554653;23;20004;-82
2023/06/19 05:20:13;;;;;;;13.20;7.70;;;;;;;16.36;100.00;92967.25;2555836;23;20004;-84
2023/06/19 05:21:14;;;;;;;9.80;8.25;;;;;;;16.42;100.00;92962.75;2554775;23;20080;-84
2023/06/19 05:22:15;;;;;;;9.80;8.07;;;;;;;16.31;100.00;92967.88;2530730;23;20036;-82
2023/06/19 05:23:16;;;;;;;11.95;8.57;;;;;;;16.23;100.00;92964.00;2542945;23;20013;-81
2023/06/19 05:24:19;;;;;;;14.50;8.30;;;;;;;16.30;100.00;92967.13;2543315;23;20072;-82
2023/06/19 05:25:22;;;;;;;13.15;8.75;;;;;;;16.38;100.00;92967.56;2543231;23;20013;-85
2023/06/19 05:26:23;;;;;;;12.63;8.48;;;;;;;16.31;100.00;92974.00;2558647;23;20395;-82
2023/06/19 05:27:26;;;;;;;11.80;8.43;;;;;;;16.30;100.00;92974.47;2556558;23;20032;-83
2023/06/19 05:28:30;;;;;;;13.48;8.93;;;;;;;16.17;100.00;92973.94;2544088;23;20024;-84
2023/06/19 05:29:32;;;;;;;13.90;8.63;;;;;;;16.24;100.00;92971.66;2530807;23;20366;-81
2023/06/19 05:30:36;;;;;;;12.43;8.90;;;;;;;16.27;100.00;92968.03;2531988;23;20005;-81
2023/06/19 05:31:38;;;;;;;10.30;9.10;;;;;;;16.30;100.00;92963.69;2543423;23;20001;-82
2023/06/19 05:32:41;;;;;;;15.10;9.15;;;;;;;16.36;100.00;92968.00;2543120;23;20571;-82
2023/06/19 05:33:44;;;;;;;11.00;9.50;;;;;;;16.42;100.00;92967.38;2543518;23;20013;-81
2023/06/19 05:34:57;;;;;;;11.57;9.27;;;;;;;16.39;100.00;92973.69;2554361;23;20011;-83
2023/06/19 05:35:59;;;;;;;13.15;9.48;;;;;;;16.49;100.00;92967.78;2541526;23;20006;-82
2023/06/19 05:37:03;;;;;;;16.02;9.43;;;;;;;16.53;100.00;92968.38;2547091;23;20014;-81
2023/06/19 05:38:06;;;;;;;13.13;10.43;;;;;;;16.55;100.00;92968.69;2556485;23;20583;-84
2023/06/19 05:39:14;;;;;;;18.25;9.48;;;;;;;16.62;100.00;92978.38;2543852;23;20016;-82
2023/06/19 05:40:15;;;;;;;12.98;9.48;;;;;;;16.70;100.00;92976.09;2545287;23;20013;-81
2023/06/19 05:41:18;;;;;;;13.75;9.45;;;;;;;16.72;100.00;92974.44;2542757;23;20044;-82
2023/06/19 05:42:19;;;;;;;12.32;9.00;;;;;;;16.75;100.00;92973.53;2557702;23;20359;-83
2023/06/19 05:43:21;;;;;;;13.82;9.52;;;;;;;16.78;100.00;92978.03;2542463;23;20010;-83
2023/06/19 05:44:23;;;;;;;11.93;9.52;;;;;;;16.84;100.00;92980.84;2532934;23;20009;-84
2023/06/19 05:45:24;;;;;;;10.88;9.02;;;;;;;16.88;100.00;92969.88;2555887;23;20008;-84
2023/06/19 05:46:25;;;;;;;12.40;9.15;;;;;;;16.96;100.00;92979.13;2555822;23;20308;-82
2023/06/19 05:47:35;;;;;;;13.38;10.13;;;;;;;16.90;100.00;92973.63;2545627;23;20012;-84
2023/06/19 05:48:37;;;;;;;17.52;10.55;;;;;;;16.87;100.00;92974.53;2560512;23;20009;-83
2023/06/19 05:49:40;;;;;;;16.42;10.02;;;;;;;16.90;100.00;92970.94;2567813;23;20323;-84
2023/06/19 05:50:42;;;;;;;13.90;9.90;;;;;;;16.93;100.00;92972.69;2554742;23;20279;-82
2023/06/19 05:51:44;;;;;;;17.23;9.85;;;;;;;17.06;100.00;92961.66;2531187;23;20006;-83
2023/06/19 05:52:48;;;;;;;14.10;9.85;;;;;;;17.10;100.00;92962.97;2531837;23;20021;-86
2023/06/19 05:53:50;;;;;;;11.65;10.07;;;;;;;17.16;100.00;92967.72;2532450;23;20013;-81
2023/06/19 05:54:55;;;;;;;14.48;10.32;;;;;;;17.17;100.00;92974.66;2543692;23;20008;-80
2023/06/19 05:55:58;;;;;;;14.80;10.25;;;;;;;17.26;100.00;92972.63;2557218;23;20447;-84
2023/06/19 05:57:00;;;;;;;13.95;10.02;;;;;;;17.32;100.00;92991.63;2543450;23;20455;-84
2023/06/19 05:58:03;;;;;;;13.68;10.45;;;;;;;17.27;100.00;92979.50;2542965;23;20021;-84
2023/06/19 05:59:06;;;;;;;13.93;10.15;;;;;;;17.47;100.00;92987.03;2543672;23;20005;-83
2023/06/19 06:00:11;;;;;;;17.75;10.68;;;;;;;17.57;100.00;92983.03;2555870;23;20015;-82
2023/06/19 06:01:12;;;;;;;14.40;10.40;;;;;;;17.46;100.00;92980.13;2554739;23;20016;-83
2023/06/19 06:02:13;;;;;;;12.73;10.15;;;;;;;17.40;100.00;92984.69;2542842;23;20088;-83
2023/06/19 06:03:15;;;;;;;13.95;10.60;;;;;;;17.32;100.00;92989.69;2543819;23;20428;-83
2023/06/19 06:04:18;;;;;;;13.90;11.13;;;;;;;17.43;100.00;92980.28;2555171;23;20023;-82
2023/06/19 06:05:20;;;;;;;14.02;10.02;;;;;;;17.42;100.00;92979.53;2544454;23;20005;-84
2023/06/19 06:06:25;;;;;;;15.07;10.65;;;;;;;17.42;100.00;92979.53;2531146;23;20021;-82
2023/06/19 06:07:33;;;;;;;20.75;11.77;;;;;;;17.55;100.00;92988.13;2556005;23;20008;-80
2023/06/19 06:08:34;;;;;;;17.83;10.70;;;;;;;17.56;100.00;92995.06;2568354;23;20083;-83
2023/06/19 06:09:35;;;;;;;19.20;11.80;;;;;;;17.59;100.00;92993.38;2567777;23;20011;-84
2023/06/19 06:10:36;;;;;;;15.45;11.35;;;;;;;17.67;100.00;92988.34;2555908;23;20013;-81
2023/06/19 06:11:40;;;;;;;13.90;10.85;;;;;;;17.80;100.00;92992.31;2543113;23;20544;-83
2023/06/19 06:12:44;;;;;;;16.75;10.48;;;;;;;17.75;100.00;92986.81;2555769;23;20108;-86
2023/06/19 06:13:47;;;;;;;14.95;10.82;;;;;;;17.76;100.00;92983.63;2557092;23;20043;-83
2023/06/19 06:14:48;;;;;;;13.07;10.82;;;;;;;17.95;100.00;92984.19;2560408;23;20008;-82
2023/06/19 06:15:50;;;;;;;14.65;11.25;;;;;;;17.86;100.00;92987.00;2561437;23;20009;-80
2023/06/19 06:16:51;;;;;;;18.13;10.82;;;;;;;17.89;100.00;92990.75;2547424;23;20012;-84
2023/06/19 06:17:55;;;;;;;24.20;11.10;;;;;;;17.89;100.00;92998.84;2543367;23;20040;-83
2023/06/19 06:18:56;;;;;;;14.65;11.35;;;;;;;17.95;100.00;92992.31;2532018;23;20045;-83
2023/06/19 06:19:58;;;;;;;16.38;10.63;;;;;;;17.93;100.00;92992.06;2529944;23;20010;-83
2023/06/19 06:20:59;;;;;;;16.67;10.70;;;;;;;17.91;100.00;92994.47;2556057;23;20072;-82
2023/06/19 06:22:00;;;;;;;18.88;11.27;;;;;;;17.93;100.00;92994.75;2556328;23;20048;-81
2023/06/19 06:23:04;;;;;;;21.00;11.63;;;;;;;17.92;100.00;92990.56;2557138;23;20012;-81
2023/06/19 06:24:09;;;;;;;15.90;10.90;;;;;;;17.98;100.00;92988.69;2556532;23;20036;-86
2023/06/19 06:25:22;;;;;;;13.00;9.93;;;;;;;17.93;100.00;93002.13;2556923;23;20052;-84
2023/06/19 06:26:27;;;;;;;15.35;10.40;;;;;;;18.05;100.00;92996.44;2555586;23;20043;-83
2023/06/19 06:27:30;;;;;;;14.43;9.85;;;;;;;18.08;100.00;93000.91;2545485;23;20463;-81
2023/06/19 06:28:31;;;;;;;16.23;10.05;;;;;;;18.12;100.00;92992.59;2532486;23;20050;-82
2023/06/19 06:29:32;;;;;;;22.38;11.38;;;;;;;18.02;100.00;92988.50;2555619;23;20009;-82
2023/06/19 06:30:39;;;;;;;47.78;13.73;;;;;;;17.92;100.00;92993.28;2556544;23;20431;-85
2023/06/19 06:31:41;;;;;;;21.65;12.38;;;;;;;18.00;100.00;92994.41;2546241;23;20046;-82
2023/06/19 06:32:42;;;;;;;21.95;11.55;;;;;;;18.03;100.00;92990.75;2570602;23;20011;-81
2023/06/19 06:33:46;;;;;;;11.32;9.23;;;;;;;18.22;100.00;92993.25;2569784;23;20012;-82
2023/06/19 06:34:48;;;;;;;29.73;12.10;;;;;;;18.09;100.00;92993.56;2556411;23;20079;-82
2023/06/19 06:35:51;;;;;;;22.27;11.05;;;;;;;18.18;100.00;92993.47;2544428;23;20048;-81
2023/06/19 06:36:53;;;;;;;20.08;10.23;;;;;;;18.09;100.00;92998.97;2567655;23;20008;-84
2023/06/19 06:38:00;;;;;;;11.00;9.20;;;;;;;18.12;100.00;92998.75;2555552;23;20031;-85
2023/06/19 06:39:03;;;;;;;13.93;10.25;;;;;;;18.20;100.00;92998.41;2543979;23;20092;-82
2023/06/19 06:40:09;;;;;;;20.58;10.60;;;;;;;18.27;100.00;93001.47;2530831;23;20396;-84
2023/06/19 06:41:15;;;;;;;25.83;10.70;;;;;;;18.35;100.00;92997.19;2555389;23;20326;-81
2023/06/19 06:42:19;;;;;;;39.92;12.52;;;;;;;18.22;100.00;92998.66;2568756;23;20007;-82
2023/06/19 06:43:20;;;;;;;31.55;11.25;;;;;;;18.29;100.00;93006.41;2554394;23;20005;-82
2023/06/19 06:44:22;;;;;;;36.95;12.40;;;;;;;18.42;100.00;93006.88;2542240;23;20012;-81
2023/06/19 06:45:23;;;;;;;14.60;10.30;;;;;;;18.41;100.00;93002.69;2555060;23;20416;-82
2023/06/19 06:46:24;;;;;;;13.98;9.85;;;;;;;18.42;100.00;92996.03;2554392;23;20439;-82
2023/06/19 06:47:25;;;;;;;15.50;10.40;;;;;;;18.41;100.00;93004.63;2529950;23;20009;-81
2023/06/19 06:48:26;;;;;;;14.10;10.32;;;;;;;18.35;100.00;93001.84;2531782;23;20009;-82
2023/06/19 06:49:27;;;;;;;10.63;9.35;;;;;;;18.43;100.00;92999.50;2531820;23;20041;-83
2023/06/19 06:50:28;;;;;;;19.00;10.88;;;;;;;18.38;100.00;93007.06;2544224;23;20391;-85
2023/06/19 06:51:30;;;;;;;16.85;10.30;;;;;;;18.49;100.00;93011.16;2544630;23;20368;-84
2023/06/19 06:52:32;;;;;;;16.17;10.50;;;;;;;18.58;100.00;93009.09;2544589;23;20092;-83
2023/06/19 06:53:34;;;;;;;12.98;9.05;;;;;;;18.65;100.00;93018.03;2530778;23;20002;-82
2023/06/19 06:54:36;;;;;;;14.00;10.23;;;;;;;18.66;100.00;93014.88;2531725;23;20110;-83
2023/06/19 06:55:40;;;;;;;15.77;10.25;;;;;;;18.70;100.00;93009.28;2544542;23;20005;-81
2023/06/19 06:56:47;;;;;;;12.70;9.60;;;;;;;18.77;100.00;93017.00;2545023;23;20009;-83
2023/06/19 06:57:52;;;;;;;32.38;11.27;;;;;;;18.74;100.00;93021.41;2544373;23;20127;-81
2023/06/19 06:58:55;;;;;;;22.83;10.55;;;;;;;18.86;100.00;93017.63;2544456;23;20294;-80
2023/06/19 06:59:56;;;;;;;13.48;9.35;;;;;;;18.75;100.00;93022.16;2555760;23;20008;-83
2023/06/19 07:00:57;;;;;;;23.52;9.57;;;;;;;18.84;100.00;93025.50;2543040;23;20073;-81
2023/06/19 07:01:58;;;;;;;14.93;10.13;;;;;;;18.93;100.00;93023.91;2542479;23;20012;-83
2023/06/19 07:02:59;;;;;;;11.15;9.18;;;;;;;18.89;100.00;93017.94;2530687;23;20006;-84
2023/06/19 07:04:00;;;;;;;13.82;9.60;;;;;;;19.05;100.00;93017.41;2530635;23;20033;-83
2023/06/19 07:05:04;;;;;;;14.35;10.07;;;;;;;19.12;100.00;93017.00;2542104;23;20013;-82
2023/06/19 07:06:08;;;;;;;28.35;10.65;;;;;;;19.10;100.00;93016.75;2532932;23;20037;-81
2023/06/19 07:07:11;;;;;;;88.07;15.30;;;;;;;19.08;100.00;93013.75;2542254;23;20012;-82
2023/06/19 07:08:12;;;;;;;61.88;14.23;;;;;;;19.18;100.00;93009.69;2518524;23;20002;-82
2023/06/19 07:09:15;;;;;;;41.13;11.38;;;;;;;19.08;100.00;93022.63;2520110;23;20321;-83
2023/06/19 07:10:19;;;;;;;73.70;16.08;;;;;;;19.04;100.00;93018.63;2520666;23;20083;-80
2023/06/19 07:11:20;;;;;;;15.10;10.15;;;;;;;19.00;100.00;93026.19;2519802;23;20009;-82
2023/06/19 07:12:21;;;;;;;18.83;9.63;;;;;;;18.96;100.00;93025.66;2518737;23;20006;-82
2023/06/19 07:13:22;;;;;;;15.75;10.15;;;;;;;18.90;100.00;93025.56;2519270;23;20082;-83
2023/06/19 07:14:23;;;;;;;14.68;10.30;;;;;;;18.82;100.00;93021.75;2518751;23;20014;-81
2023/06/19 07:15:26;;;;;;;16.80;10.43;;;;;;;18.81;100.00;93021.03;2519553;23;19994;-82
2023/06/19 07:16:27;;;;;;;12.77;10.75;;;;;;;18.79;100.00;93020.75;2520474;23;20013;-81
2023/06/19 07:17:28;;;;;;;14.65;10.27;;;;;;;18.70;100.00;93026.28;2531477;23;20081;-83
2023/06/19 07:18:29;;;;;;;13.23;9.60;;;;;;;18.69;100.00;93021.28;2519340;23;20057;-82
2023/06/19 07:19:30;;;;;;;13.15;10.07;;;;;;;18.68;100.00;93027.94;2531032;23;20138;-81
2023/06/19 07:20:32;;;;;;;11.57;9.18;;;;;;;18.65;100.00;93018.03;2531925;23;20118;-81
2023/06/19 07:21:33;;;;;;;14.13;9.38;;;;;;;18.70;100.00;93017.41;2531547;23;20076;-81
2023/06/19 07:22:36;;;;;;;12.63;9.95;;;;;;;18.61;100.00;93019.00;2531839;23;20010;-82
2023/06/19 07:23:40;;;;;;;19.27;9.55;;;;;;;18.54;100.00;93011.25;2530518;23;20113;-84
2023/06/19 07:24:42;;;;;;;12.43;9.70;;;;;;;18.68;100.00;93017.84;2541589;23;20064;-83